Event Stats: Tennessee (MPO)

Last Updated: 2022-09-26 18:37:50

Shows events in the Statmando database that have been held in Tennessee and that include an MPO Division, capped at the most recent 1000 events.
Name EventEndDate Tour City FieldSize AvgRating TotalPurse EventRounds Winner WinnerEventRating WinnerCashPerThrow WinnerPrize
The Knoxville Disc Golf Association Presents: Volunteer Classic XVII Sponsored by Dynamic Discs 2022-09-24 C Knoxville 23 964.1522 2,530 2 Harper Thompson 1034.5000 3.6264 330
Flying with the Golden Eagles 2022-09-24 C Shelbyville 7 935.7143 596 2 PDGA #82334 975.5000 1.4490 142
Cane Creek Challenge 11 2022-09-17 C Cookeville 11 976.2727 0 2 Michael Hoffman 1019.5000 0.0000 0
Throwmore 2022: A Disc Golf Odyssey 2022-09-17 C Rogersville 3 946.5000 0 2 PDGA #145704 968.5000 0.0000 0
Battle At the Border 2022 - Presented By: Pluto Sports 2022-09-17 C Jellico 10 981.4000 960 2 Kris Orrick 1007.5000 2.0000 200
Triple Creek Blitz Ignited by Nashville Disc Golf Store 2022-09-11 C Gallatin 4 957.3750 0 2 D.J. Wix 1011.5000 0.0000 0
Battle at the Fort 2022 - Presented by Smoky Mountain Discs 2022-09-10 C Kingston 8 944.0000 1,134 2 PDGA #126587 976.0000 2.4787 233
The Muletown Open 2022-09-10 C Columbia 7 930.4286 0 2 PDGA #126025 965.5000 0.0000 0
The Annexation of Puerto Rico 2022-09-03 C Loretto 12 935.8333 1,220 2 PDGA #120855 998.0000 2.3913 220
Athens Tennessee "Hit me with your best shot" Presented by Dynamic Discs 2022-08-28 B Athens 18 970.3611 5,450 2 James Cole 1008.5000 7.1062 803
Skeeter Heater Sponsored by Dynamic Discs 2022-08-28 B Smyrna 26 949.3542 0 2 Blake Waldron 1008.0000 0.0000 0
State Route Shootout 2022-08-27 C Cookeville 4 951.0000 0 2 Michael Hoffman 1016.5000 0.0000 0
Sweet Tea Classic Presented By Dynamic Discs Music City 2022-08-27 C McKenzie 3 940.3333 0 1 PDGA #85187 981.0000 0.0000 0
Athens TN Friday Flex Start 2022-08-26 C Athens 1 976.0000 39 1 PDGA #129652 976.0000 0.7959 39
2022 Cane Ridge Open Presented by Dynamic Discs 2022-08-21 C Antioch 9 920.7500 1,118 2 PDGA #32158 996.5000 2.1296 230
Throwmore 2022: Meet the Mountains 2022-08-14 C Johnson City 4 974.1250 0 2 PDGA #80258 1026.0000 0.0000 0
The Bearden Beer Market Presents: The 2022 Knoxville Open Driven By Innova 2022-08-13 B Knoxville 24 961.8723 4,452 2 Harper Thompson 1009.0000 5.4717 580
Battle for the Border 2022-08-13 B Shelbyville 15 942.2000 2,814 2 Chase Van Burkleo 980.5000 6.2268 604
1st Annual Girls Inc. Motown Throwdown (CEP Charity - Rated) 2022-08-13 XC Morristown 2 941.7500 0 2 PDGA #97966 946.5000 0.0000 0
High Hyzers Flex Start at Don Davidson 2022-08-06 C Fayetteville 1 983.0000 48 1 PDGA #92183 983.0000 1.1163 48
Lakefront Open 37 2022-07-31 C Kingsport 18 966.4583 2,385 3 PDGA #77771 1006.0000 1.7294 294
The Knoxville Disc Golf Association Presents: The 2022 Tommy Schumpert Open 2022-07-30 C Knoxville 9 957.7778 990 2 Colby Childress 1005.5000 2.1287 215
Hot Round at Henry Horton presented by Latitude 64 2022-07-24 C Chapel Hill 9 928.3333 0 1 PDGA #92183 1010.0000 0.0000 0
Premier Design : Harmon Hills Open 2022-07-17 B Fall Branch 30 975.7647 9,165 3 Jacob Cutshall 1028.6667 4.5402 790
2022 Brood X Open sponsored by Dynamic Discs 2022-07-16 C Fayetteville 8 962.7500 760 2 Logan Bowers 1002.5000 1.7816 155
Flex Start #2 at Winchester Sponsored by High Hyzers 2022-07-10 C Winchester 11 940.4545 341 1 PDGA #92183 1019.0000 3.0435 140
Star Spangled Shootout 2022-07-09 C Cookeville 7 939.5714 1,020 2 Danny Parkins 971.5000 2.4500 245
2022 Seven Oaks Summer Solstice 2022-06-26 B Nashville 16 948.0625 3,854 2 PDGA #125889 1007.5000 5.4112 579
The Knoxville Disc Golf Association Presents: The 2022 Appalachian Ironman 2022-06-25 B Maryville 12 961.2778 4,842 3 Joey Lutz 1029.0000 4.0629 581
THROWING FOR A CURE 2022-06-25 C SHELBYVILLE 19 930.7895 1,800 2 PDGA #189424 972.5000 2.7204 253
White House Hukfest Ignited by Nashville Disc Golf Store 2022-06-19 C Whit House 20 945.2821 0 2 Mikey Harrod 996.0000 0.0000 0
Sanders Ferry Sizzle Presented by Discin’ Disciples 2022-06-18 C Hendersonville 7 933.7143 690 2 Mack Ferrell 980.0000 1.7188 165
Friday B4 Fathers Day Flex 2022-06-17 C Tullahoma 7 910.1429 209 1 PDGA #92183 995.0000 2.0196 103
Sad Dog Discs Open 2022-06-11 C Nashville 16 944.6563 1,204 2 PDGA #99246 1026.0000 0.0000 0
Premier Design : Concrete Jungle at the Ville 2022-06-11 C Rogersville 9 954.4444 888 2 PDGA #68281 1016.0000 2.4198 196
Tennessee State Disc Golf Championships Presented by Discraft 2022-06-05 A Morristown 86 978.4343 37,752 3 Chris Dickerson 1025.6667 8.7321 1,467
Battle at Burde Ridge XIII 2022-06-04 C Woodbury 5 942.0000 550 2 D.J. Wix 1008.0000 1.3830 130
Kiwanis Disc Golf Course FLEX Start 2022-06-02 C Morristown 4 968.7500 92 1 Jake Monn 1046.0000 1.3810 58
Cherokee Park Flex Start 2022-06-02 C Morristown 9 941.7778 207 1 PDGA #86936 989.0000 1.6346 85
Barfield Open 2022-05-29 B Murfreesboro 20 944.6923 3,960 2 PDGA #32158 1010.0000 5.9677 555
Mike Lane Classic at Cedar Hill Presented By Dynamic Discs 2022-05-22 C Madison 9 931.4444 482 1 Harper Thompson 1028.0000 3.7358 198
Summer Warmup 2022-05-21 C Morristown 9 976.3333 836 2 PDGA #77771 1033.0000 2.1277 200
DDGA East Open 2022 2022-05-15 C knoxville 3 920.7778 0 3 PDGA #61672 949.3333 0.0000 0
The 2nd Annual Loch Ness Disc Feast presented by Discin' Disciples 2022-05-14 C Springfield 7 957.2857 720 2 Kevin Rarick 985.5000 1.6822 180
3rd Annual River City Showdown 2022-05-14 C Savannah 1 965.5000 136 2 Neil Bishop 965.5000 0.6355 68
Premier Design : Borden Extreme 2022-05-14 C Kingsport 9 954.0000 614 2 PDGA #43892 988.5000 0.0000 0
Don Davison Flex hosted by Elk Valley DGC 2022-05-14 C Fayetteville 7 937.2857 250 1 PDGA #92183 993.0000 2.4419 105
Muletown Free for All (CEP Charity - Rated) 2022-05-14 XC Columbia 5 932.6000 0 1 PDGA #85187 971.0000 0.0000 0
40th Annual Dogwood Classic 2022-05-08 C Memphis 15 946.0667 4,791 3 Cole Neal 1026.0000 3.7986 528
Golf Capital Open 2022-05-07 C Crossville 7 946.4286 980 2 Austin Housewright 986.5000 2.3039 235
Throwmore 2022: The Return of Model City Madness: Mo Madness 2022-05-01 C Kingsport 7 956.7143 0 3 PDGA #97592 976.6667 0.0000 0
OG Showdown 2022-04-30 C Morristown 15 968.2333 1,620 2 PDGA #77771 1017.0000 2.7629 268
The Samurai Jōkotō - Presented by Smoky Mountain Discs 2022-04-23 C Knoxville 8 959.0625 1,072 2 Colby Childress 987.5000 2.1154 220
2022 Zambia Open Fundraiser Flex Start - The Highlands at J. Travis Price Park (CEP Charity - Rated) 2022-04-23 XC Springfield 5 944.0000 0 1 PDGA #55683 963.0000 0.0000 0
2022 Zambia Open Fundraiser Flex Start - The Highlands at J. Travis Price Park (CEP Charity - Rated) 2022-04-23 XC Springfield 5 944.0000 0 1 PDGA #92183 963.0000 0.0000 0
Arlington, TN Easter C-TIer 2022-04-17 C Arlington 2 925.2500 0 2 PDGA #159374 940.5000 0.0000 0
MadeFirst presents the Dynamic Discs Music City Open - DGPT Silver Series 2022-04-03 DGPT-Silver Nashville 112 994.9970 72,450 3 Chris Dickerson 1059.3333 14.6341 2,400
The Knoxville Disc Golf Association Presents: The 2022 Meltdown Challenge Driven By Innova 2022-03-26 C Oak Ridge 10 974.0500 1,080 2 Adam Stanton 1003.0000 2.0952 220
Urban Eagle 2022-03-26 C Shelbyville 12 930.2083 1,272 2 Michael Hoffman 996.5000 2.0446 229
Dickson Disc Golf Classic Sponsored by Dynamic Discs 2022-03-20 C Dickson 15 943.2667 0 2 Jon Lynn 1007.5000 0.0000 0
Shelbyville Flex Start Series 2022 #1 2022-03-19 C Shelbyville 8 925.5000 220 1 Danny Parkins 1008.0000 2.5000 110
Iron Pig 2022 - Presented by Smoky Mountain Discs 2022-03-12 C Harriman 4 936.5000 106 1 PDGA #99246 1020.0000 0.0000 0
High Hyzers presents WTH: Winchester Throwing up the Hill 2022-03-12 C Winchester 4 966.7500 584 2 Logan Bowers 1000.0000 1.7596 183
Frozen Chains 2022 2022-03-12 C Arlington 4 947.1250 550 2 Josh Coghill 994.5000 1.8000 180
Discraft Presents: Spike Hyzer's Tim & Donna's Wedding Anniversary Extravaganza 2022-03-06 B Fall Branch 39 964.5395 0 2 Zach Melton 1017.5000 0.0000 0
Discraft Presents: Spike Hyzer's Tim & Donna's Wedding Anniversary Extravaganza 2022-03-06 B Fall Branch 39 964.5395 0 2 PDGA #65511 1017.5000 0.0000 0
The Huck of the Irish hosted by Hidden Valley Golf Course 2022-03-05 C Livingston 18 948.0294 2,192 2 Justin Bunnell 1014.0000 2.7679 310
The Knoxville Disc Golf Association Presents: The 2022 Old City Open Sponsored by Dynamic Discs 2022-02-19 C Knoxville 17 966.2424 1,904 2 Kris Orrick 1050.0000 3.2135 286
Winchester Flex Start Sponsored by High Hyzers 2022-02-19 C Winchester 16 942.0625 405 1 PDGA #99246 1016.0000 0.0000 0
Shelby Shootout Sponsored by MVP Discs Ignited by Nashville Disc Golf Store 2022-02-13 C Nashville 15 959.6333 1,950 2 Justin Bunnell 1035.0000 3.6842 350
Frozen Gnome IV presented by Full Flight Disc 2022-02-12 B Chattanooga 27 968.9259 4,874 2 Blake Waldron 1035.5000 6.0396 610
Premier Design : Rogersville Ice Bowl and Chili Cookoff!! 2022-02-05 C Rogersville 15 958.9667 870 2 Noah Osborne 1023.5000 1.6747 139
The Knoxville Disc Golf Association Presents: The 2022 Knoxville Ice Bowl (CEP Charity - Rated) 2022-01-29 XC Knoxville 20 933.6154 1,640 2 Colby Childress 1013.5000 2.5000 230
Country Hills Thriller Sponsored by Discraft Ignited by Nashville Disc Golf Store 2022-01-23 C Hendersonville 13 971.5200 1,300 2 Josh Coghill 1035.5000 2.0874 215
Shelbyville Freeze 2022-01-22 C Shelbyville 5 929.2000 600 2 Breydon Christopher 950.5000 1.7407 188
Smoky Mountain Discs Elite Membership Drive 2022-01-22 C Maryville 3 922.3333 0 1 PDGA #119018 944.0000 0.0000 0
New Year's Classic 2022-01-08 C Loretto 11 953.2381 1,060 2 Christian Camp 1000.5000 2.0000 190
Hucken with a Hangover Part 2 2022-01-02 C Woodbury 3 970.0000 69 1 Chase Van Burkleo 992.0000 0.8776 43
Hucken with a Hangover 2022-01-01 C Woodbury 2 967.5000 46 1 PDGA #42736 991.0000 0.6866 46
The KDGA Presents: The 2021 End of the Year Flex Start C-Tier 2021-12-18 C Maryville 2 977.5000 96 1 PDGA #81287 983.0000 1.9200 96
Shelby Shootout Ignited by Nashville Disc Golf Store 2021-12-12 C Nashville 7 948.0714 910 2 Khris Leviner 1006.5000 2.3404 220
Morristown Winter Throwdown 2021-12-11 C Morristown 4 968.0000 232 1 PDGA #96994 985.0000 0.0000 0
Premier Design : Blue Monster Hybrid 2021-12-11 C Kingsport 10 969.5500 566 2 PDGA #111046 1034.0000 0.0000 0
Battle at the Fort 2021 - Presented by Smoky Mountain Discs 2021-12-04 C Kingston 4 945.7500 520 2 Colby Childress 1006.5000 1.8966 165
Sanders Ferry Shiver presented by Discin' Disciples & Trinity Disc Golf 2021-12-04 C Hendersonville 8 923.8125 890 2 Mack Ferrell 958.0000 1.8317 185
Belch'n Turkey XIX 2021-11-27 B Chattanooga 24 965.1875 5,470 2 Chris Dickerson 1048.5000 7.6344 710
Rutherford Anniversary 2021-11-21 B Murfreesboro 23 966.9412 8,655 3 Cole Neal 1019.0000 5.2448 750
The KDGA Presents: The 2021 Parkway Challenge 2021-11-20 C Maryville 10 967.1500 1,300 2 Colby Childress 1018.5000 2.7895 265
Lowland Challenge 2021-11-14 B Morristown 17 975.8824 5,820 3 PDGA #81122 1000.0000 3.3506 583
HV GRIFFIN PARK FLX START #2 2021-11-13 C shelbyville 8 891.7500 223 1 PDGA #80370 954.0000 1.3617 64
HV GRIFFIN PARK FLX START #2 2021-11-13 C shelbyville 8 891.7500 223 1 PDGA #92183 954.0000 1.3617 64
HV GRIFFIN PARK FLX START #2 2021-11-13 C shelbyville 8 891.7500 223 1 PDGA #189424 954.0000 1.3617 64
Long Hollow Open 2021-11-07 C Gallatin 11 971.3636 1,100 2 James Cole 1043.0000 2.0500 205
20th Annual Lee Naquin Memorial 2021-11-07 B Memphis 22 952.2857 6,120 3 Josh Coghill 1016.3333 4.3796 600
4th Annual Josie's Journey Open 2021-11-06 C Lawrenceburg 10 955.5000 962 2 E. Lucas Pierce 1038.5000 1.9663 175
Throwdown at Sunrise 2021-11-06 C Tullahoma 5 944.3000 600 2 Danny Parkins 979.5000 1.7570 188
Portland Tennessee Open 2021-10-31 C Portland 1 988.0000 50 1 PDGA #42736 988.0000 0.9804 50
Flick or Treat 2021-10-30 C Cookeville 11 950.0909 1,720 2 Joey Lutz 1019.5000 3.2979 310
Showdown at Sanders Ferry presented by Discin' Disciples & Trinity Disc Golf 2021-10-30 C Hendersonville 10 951.7500 1,120 2 Jared Forlines 993.0000 2.3000 230
2021 Bell Witch Open Presented By Dynamic Discs 2021-10-24 C Cedar Hill 6 950.3333 1,022 2 Mikey Harrod 985.5000 2.5579 243
Throwmore: 2021: A Disc Golf Odyssey at Rogersville 2021-10-23 C Rogersville 4 979.7500 384 2 PDGA #77771 1001.0000 1.4286 120
Chains on the Links VIII 2021-10-17 B Soddy Daisy 31 977.4590 6,980 2 Brandon Brown 1040.5000 8.3505 810
2nd Annual Hub City Classic 2021-10-16 C Jackson 3 938.6667 0 2 Calvin Pettigrew 1007.5000 0.0000 0
Flex Start C Tier presented by Latitude 64 - Dallas Island 2021-10-16 C Hixon 6 944.5000 96 1 PDGA #116927 979.0000 1.1556 52
Montlake Flex Start C Tier presented by Latitude 64 2021-10-15 C Soddy Daisy 11 972.1818 184 1 Joey Lutz 1024.0000 1.4898 73
Crossroads Classic 2021-10-09 C Crossville 9 957.8889 1,082 2 PDGA #84061 1009.0000 2.2222 220
Premier Design : Chimney Top Hybrid, Sponsored by Dynamic Discs 2021-10-09 C Chuckey 14 968.4643 1,204 2 PDGA #77771 1006.5000 1.9802 200
The KDGA Presents: Volunteer Classic XVI - Day 1 2021-10-02 C Knoxville 12 960.3750 1,690 2 PDGA #74890 1000.5000 2.8283 280
The Gordon Bombay Invitational 2021-10-02 C Loretto 12 933.7500 920 2 Bo McLaughlin 1011.0000 1.7553 165
2021 Music City Open Presented by Dynamic Discs - NT Finale 2021-09-26 NT Nashville 130 994.5126 230,308 4 Mason Ford 1051.0000 35.3774 7,500
The Highland Games presented by Discin' Disciples & Trinity Disc Golf 2021-09-18 C Springfield 13 939.2308 615 1 PDGA #76968 989.0000 3.7963 205
Secret City Classic⁴ - Presented by Smoky Mountain Discs - Pro, Advance, Intermediate, MA40 2021-09-18 B Oak Ridge 14 967.8462 3,162 2 James Cole 1007.0000 4.4153 521
HV GRIFFIN PARK FLX START 2021-09-11 C shelbyville 7 939.8571 270 1 PDGA #50153 986.0000 3.1395 135
Skeeter Heater 2021-08-29 B Smyrna 23 979.2609 4,214 2 PDGA #41285 1032.5000 5.7188 549
Triple Creek Blitz Ignited by Nashville Disc Golf Store 2021-08-22 C Gallatin 5 972.5000 592 2 Khris Leviner 1003.0000 1.9474 185
The KDGA Presents: The 2021 Knoxville Open 2021-08-21 B Knoxville 25 970.8200 4,850 2 Brandon Brown 1031.5000 5.9223 610
Throwmore: Meet the Mountains at Winged Deer 2021-08-15 C Johnson City 22 959.4750 1,828 2 PDGA #80258 1009.5000 2.9890 272
2021 Cane Ridge Open Presented by Dynamic Discs 2021-08-15 C Nashville 13 954.6923 807 1 Joey Lutz 1020.0000 5.5192 287
Goodline Open 2021-08-07 C Shelbyville 6 911.0000 582 2 PDGA #21880 975.5000 1.5275 139
The Muscovy Open 2021-07-31 C Knoxville 17 949.4063 850 2 Clint Burner 1008.0000 1.4176 129
Lakefront Open XXXVI 2021-07-25 C Kingsport 23 959.2222 2,314 2 Geoff Bennett 1017.0000 2.4091 318
The KDGA Presents: The 2021 Tommy Schumpert Open - Day 2 2021-07-18 C Knoxville 26 964.3077 3,380 2 Brandon Brown 1032.5000 4.3367 425
White House Huk Fest IV Driven by Innova Ignited by Nashville Disc Golf Store 2021-07-11 C White House 12 939.2083 1,560 2 D.J. Wix 991.0000 2.7273 300
2021 Brood X Open 2021-07-10 C Fayetteville 11 937.9545 1,900 2 Dean Tannock 989.0000 3.9205 345
Summer Showdown 2021-07-10 C Morristown 18 970.1944 2,088 2 Joey Lutz 1019.5000 2.7130 293
Third of July Throw Down 2021-07-03 C Arlington 8 964.3750 1,088 2 PDGA #79280 1012.0000 2.4348 224
Premier Design : Harmon Memorial, Sponsored by Dynamic Discs 2021-06-27 B Fall Branch 43 965.3614 5,462 2 Sean Goddard 1028.5000 5.0472 535
Throwing for a Cure 2021-06-26 C Shelbyville 9 966.8333 1,008 2 Danny Parkins 1005.5000 2.3258 207
2021 Seven Oaks Summer Solstice Presented by Dynamic Discs 2021-06-20 B Nashville 20 929.2500 4,816 2 James Cole 1009.0000 6.2500 675
Archer's BBQ Presents: The 2021 Appalachian Ironman Day 1 2021-06-19 C Maryville 12 944.6571 2,109 3 PDGA #80635 982.0000 1.7134 281
Flying Discs for Healthier Kids Tournament Benefitting Children's Hospital at Erlanger 2021-06-12 C Chattanooga 6 946.7500 336 2 Joey Lutz 1020.0000 0.9072 88
Tennessee State Disc Golf Championships 2021-06-06 A Morristown 84 971.7258 36,009 3 Chris Dickerson 1032.3333 8.8688 1,419
Kiwanis Disc Golf Course FLEX Start 2021-06-03 C Morristown 7 953.4286 161 1 Chris Dickerson 1062.0000 1.8780 77
Cherokee Park Flex Start 2021-06-03 C Morristown 21 961.8095 394 1 PDGA #77771 1012.0000 2.6000 130
Battle at Burde Ridge 2021-05-29 C Woodbury 9 963.7778 992 2 D.J. Wix 989.0000 1.8367 180
2021 Mike Lane Classic Sponsored by Dynamic Discs 2021-05-23 C Nashville 11 937.8182 640 1 Harper Thompson 1026.0000 4.2364 233
Athens Tennessee "Hit me with your best shot" sponsored by Westside Discs 2021-05-16 B Athens 27 979.2963 6,194 2 Chris Dickerson 1031.5000 7.1101 775
Barfield Open Presented By Prodigy 2021-05-16 B Murfreesboro 28 961.1818 5,256 2 Harper Thompson 1036.0000 7.1839 625
Falcon's Flying Discs 2021 2021-05-15 C Rogersville 4 945.6250 384 2 PDGA #70922 963.0000 1.2903 120
The Loch Ness Disc Feast presented by Discin’ Disciples and Trinity Disc Golf 2021-05-15 C Springfield 10 952.3500 1,086 2 Stone Smith 992.5000 1.8702 245
Discmania Combine - Tennessee 2021-05-08 C Madison 27 930.7778 0 1 Stone Smith 1015.0000 0.0000 0
Cookeville Spring Flex 2021-05-01 C Cookeville 2 989.0000 130 1 Danny Parkins 1029.0000 2.8889 130
The Urban Eagle 2021-04-24 C Shelbyville 5 922.2222 530 2 PDGA #126809 973.5000 1.5091 166
Throwmore : The Return of Model City Madness: The Come Back 2021-04-18 C Kingsport 18 949.2500 1,612 2 PDGA #77771 1001.0000 2.3592 243
The Iron Pig 2021 - Presented by Smoky Mountain Discs 2021-04-10 C Harriman 9 951.5556 1,380 2 Colby Childress 1014.0000 2.8020 283
2nd Annual River City Showdown 2021-04-10 C Savannah 2 944.2500 0 2 Chris Sutherland 959.0000 0.0000 0
The Battle for Oggwood presented by Dynamic Discs 2021-04-10 C Cedar Hill 6 949.5833 250 2 Jackson Hester 986.5000 0.0000 0
State Championship Warmup at Frank Lorino Park 2021-04-03 C Morristown 16 963.4375 1,600 2 Colby Childress 1003.0000 2.0690 240
The KDGA Presents: The 2021 Meltdown Challenge - Day 1 2021-03-20 C Oak Ridge 22 963.6744 2,770 2 Joey Lutz 1014.5000 3.7879 375
Dogwood Hills Throwdown Ignited by Nashville Disc Golf Store 2021-03-14 C Portland 16 966.3125 1,760 2 Harper Thompson 1029.5000 2.7500 275
Discraft Presents: Spike Hyzer's Tim & Donna's Wedding Anniversary Extravaganza 2021-03-07 C Fall Branch 20 967.6053 1,920 2 Chris Dickerson 1040.0000 1.7881 270
Prodigy Presents Nooga 2021 Benefitting Chambliss Center for Children 2021-03-06 C Chattanooga 10 982.4500 1,164 2 DW Hass 1028.5000 2.3762 240
Rockland Dam Challenge Ignited by Nashville Disc Golf Store 2021-02-28 C Hendersonville 9 938.1111 960 2 D.J. Wix 981.0000 2.2680 220
The KDGA Presents: The 2021 Old City Open Sponsored by Dynamic Discs - Day 1 2021-02-20 C Knoxville 23 960.5333 3,030 2 Colby Childress 1041.5000 4.2308 385
Frozen Chains 2021 2021-02-06 C Millington 5 950.1000 680 2 PDGA #89273 976.5000 1.9369 215
The Frozen Gnome III - Presented by Full Flight Disc 2021-02-06 B Chattanooga 19 967.9211 3,496 2 Chris Dickerson 1042.0000 4.8900 489
Shelbyville Freeze 2021-01-30 C Shelbyville 7 945.2143 526 2 Michael Hoffman 1011.5000 1.2755 125
Shelby Shootout 2021 2021-01-17 C Nashville 12 943.9167 1,440 2 Harper Thompson 1030.5000 2.6000 260
The Knoxville Disc Golf Association Presents: The 2021 Knoxville Ice Bowl 2021-01-16 C Knoxville 20 959.3750 1,632 2 Chris Dickerson 1066.0000 2.7711 230
The New Years Classic 2021-01-01 C Loretto 14 932.3214 640 2 PDGA #73879 1000.0000 1.0938 105
The 2020 End of the Year Flex Start C-Tier 2020-12-27 C Maryville 12 952.9167 550 1 Colby Childress 1008.0000 4.2553 200
Admiral in Retrograde 2020-12-21 C Knoxville 16 954.5333 640 1 Chris Dickerson 1063.0000 5.3571 225
Battle at the Fort - Presented by Smoky Mountain Discs 2020-12-12 C Kingston 5 958.9000 696 2 Colby Childress 1007.0000 1.8864 166
Premier Design : Blue Monster Hybrid 2020-12-12 C Kingsport 13 972.1200 1,248 2 Jordan Davidson 1022.0000 2.0396 206
Country Hills Thriller Driven by Innova Ignited by Nashville Disc Golf Store 2020-12-06 C Hendersonville 15 960.7000 1,442 2 Jordan Davidson 1019.5000 2.4272 250
Belch'n Turkey XVIII 2020-11-28 B Chattanooga 20 977.3333 4,560 2 Chris Dickerson 1053.0000 6.9565 640
MTDGA Rutherford Anniversary sponsored by Dynamic Discs 2020-11-21 C Murfreesboro 24 966.3750 3,644 2 Logan Bowers 1034.0000 5.3297 485
Cane Creek Challenge 10 presented by One Call Delivery Service 2020-11-14 B Cookeville 8 961.6875 2,370 2 Michael Hoffman 1008.5000 5.1053 485
The KDGA Presents: The 2020 Meltdown Challenge 2020-11-14 C Oak Ridge 15 962.8333 1,972 2 Colby Childress 1025.5000 3.4316 326
The 19th Annual Lee Naquin Memorial 2020-11-08 B Memphis 28 938.0833 7,020 3 Cole Neal 1037.6667 4.4776 600
3rd Annual Josie’s Journey Open 2020-11-07 C Lawrenceburg 10 931.8000 660 2 E. Lucas Pierce 998.5000 1.7021 160
Long Hollow Open Ignited by Nashville Disc Golf Store 2020-11-01 C Gallatin 9 954.6111 864 2 Kevin Rarick 1018.5000 1.5085 178
Motown Halloween Bash 2020-10-31 C Morristown 14 965.7857 1,624 2 PDGA #81122 1014.0000 2.7347 268
2020 Bell Witch Open Sponsored by Dynamic Discs 2020-10-25 C Nashville 20 929.2000 960 1 Logan Bowers 1044.0000 6.4286 270
Black Bear Classic - Presented by Smoky Mountain Discs 2020-10-24 C Maryville 7 968.0714 812 2 Colby Childress 986.5000 1.7870 193
Triple Creek Blitz 2020-10-18 C Gallatin 12 948.3750 1,320 2 D.J. Wix 1024.5000 2.1727 239
Chains on the Links VII Sponsored by Dynamic Discs 2020-10-18 B Soddy Daisy 32 983.4375 6,900 2 Joey Lutz 1050.0000 8.6022 800
Throwmore: 2020: A Disc Golf Odyssey at Rogersville 2020-10-17 C Rogersville 4 956.3750 464 2 PDGA #68281 978.5000 1.6111 145
COL Flex Start Saturday presented by Latitude 64 - The Sinks DGC 2020-10-17 C Chattanooga 5 954.8000 90 1 Michael Hoffman 1007.0000 1.0980 56
COL Flex Start Friday presented by Latitude 64 - Montlake 2020-10-16 C Soddy Daisy 9 978.4444 162 1 Joey Lutz 1047.0000 1.3469 66
Ashland City Open 2020-10-10 C Ashland City 2 840.5000 100 1 PDGA #140634 896.0000 2.0000 100
2020 Woodland Park Open 2020-10-10 C Columbia 8 962.2000 1,080 2 Luke Samson 1001.0000 1.5984 195
Volunteer Classic XV 2020-10-04 B Knoxville 16 960.9167 5,247 3 Colby Childress 985.3333 3.2609 525
2020 Music City Open Presented by Dynamic Discs 2020-09-27 A Nashville 142 969.8687 42,462 3 Alden Harris 1043.6667 8.3791 1,282
Premier Design : 411 Hybrid at Warriors Bend TPC - Sponsored by Dynamic Discs 2020-09-20 C Kingsport 17 980.5588 1,632 2 PDGA #77771 1016.0000 2.3883 246
Secret City Classic³ - Presented by Smoky Mountain Discs - MPO, MP40, MA1, MA2, MA40, FPO, FP40, FA1 2020-09-19 C Oak Ridge 17 969.3333 2,312 2 Joey Lutz 1014.5000 2.8211 347
Meet the Mountains at Winged Deer 2020-08-29 C Johnson City 20 962.2500 1,840 2 PDGA #80258 1021.5000 2.8667 258
"Where World's Woulda Been" - Sponsored by Dynamic Discs 2020-08-23 B Fall Branch 21 983.5000 3,951 3 Chris Dickerson 1053.0000 2.4583 354
2020 Cane Ridge Open Sponsored by Dynamic Discs 2020-08-15 C Nashville 16 954.8000 631 1 Justin Bunnell 1043.0000 4.6400 232
The 2020 Knoxville Open 2020-08-15 B Knoxville 31 974.7869 4,762 2 Kris Orrick 1029.5000 5.1887 550
Hub City Classic 2020-08-01 C Jackson 8 932.2143 840 2 Cole Neal 988.5000 2.0619 200
Throwmore : The Return of Model City Madness The Sequel 2020-08-01 C Kingsport 9 967.4706 720 2 PDGA #111603 1023.0000 1.5476 130
White House Huk Fest 3 - Sponsored by Nashville Disc Golf Store 2020-07-26 C Whitehouse 14 927.3214 1,540 2 D.J. Wix 987.0000 2.2973 255
Lakefront Open XXXV - Sponsored by Dynamic Discs 2020-07-26 C Kingsport 24 956.4348 2,304 2 PDGA #68281 1009.0000 2.2803 301
Skeeter Heater 2020-07-19 C Smyrna 27 965.4118 3,450 2 Blake Waldron 1040.0000 4.6739 430
The 2020 Tommy Schumpert Open Powered by Prodigy 2020-07-18 B Knoxville 16 968.0938 2,890 2 Chris Dickerson 1039.5000 4.4286 434
Throwmore : The Return of Model City Madness Part 1 2020-07-05 C Kingsport 18 950.2000 904 2 PDGA #65511 1001.0000 1.7875 143
Premier Design : 8th Harmon Memorial 2020-06-28 C Fall Branch 35 957.5000 3,462 2 PDGA #14994 1002.5000 3.2479 380
The Appalachian Ironman 2020-06-21 B Maryville 23 970.6812 5,262 3 Brandon Brown 1020.6667 3.0671 457
2020 Seven Oaks Summer Solstice Sponsored by Dynamic Discs 2020-06-20 C Nashville 18 946.4444 867 1 Logan Bowers 1036.0000 4.3860 250
Tennessee State Disc Golf Championships 2020-06-07 A Morristown 84 973.0402 35,370 3 Chris Dickerson 1053.0000 9.0584 1,395
Kiwanis Disc Golf Course FLEX Start 2020-06-04 C Morristown 7 969.8571 160 1 Chris Dickerson 1051.0000 1.6667 70
Cherokee Park Flex Start 2020-06-04 C Morristown 20 973.3500 400 1 Chris Dickerson 1066.0000 2.3864 105
Nooga 2020 Benefitting Chambliss Center for Children - Powered by Prodigy 2020-03-07 C Chattanooga 8 963.5385 928 2 PDGA #120668 1024.5000 1.9000 190
Spike Hyzer's: Tim & Donna Wedding Anniversary Extravaganza VI 2020-03-01 C Fall Branch 25 960.9184 2,400 2 PDGA #65511 1020.0000 2.0513 320
The 2020 Old City Open Sponsored By: Dynamic Discs 2020-02-29 B Knoxville 17 970.2424 3,370 2 Chris Dickerson 1024.0000 5.3191 500
Frozen Chains 2020 2020-02-22 C Millington 11 961.4545 1,166 2 Cole Neal 1004.0000 1.7500 210
Frozen Finger Shoot-Out 2020-02-22 C Morristown 17 967.1765 1,974 2 Chris Dickerson 1039.0000 2.9307 296
Rockland Dam Challenge Ignited by Nashville Disc Golf Store 2020-02-16 C Hendersonville 6 949.4167 600 2 D.J. Wix 989.0000 1.4894 140
Premier Design : Tee'd Up to Fight Hunger 2020-02-01 C Rogersville 8 953.1429 240 2 PDGA #65511 1018.5000 0.5952 50
The 2020 Knoxville Ice Bowl 2020-01-25 C Knoxville 19 959.2895 2,014 2 Brandon Brown 1023.0000 3.1798 283
Full Flight Disc presents The Frozen Gnome II sponsored by Dynamic Discs 2020-01-18 B Chattanooga 24 978.2609 4,240 2 Joey Lutz 1021.0000 5.0000 550
Shelby Shootout Ignited by Nashville Disc Golf Store 2020-01-12 C NASHVILLE 17 970.1875 1,700 2 Jordan Davidson 1025.0000 2.5743 260
K-Man’s Shuffle Shutdown 2020-01-04 C Nashville 24 933.0435 111 1 David Harless 1005.0000 0.6780 40
LCDC New Year’s Classic 2020-01-01 C Lawrenceburg 13 950.9231 730 2 PDGA #73879 1018.0000 1.3793 120
Screw Cancer @ the Sinks 2019 2019-12-29 C Chattanooga 8 930.5625 420 2 Joey Lutz 1017.5000 0.9140 85
The 2019 End of the Year Flex Start C-Tier 2019-12-28 C Maryville 10 960.2000 609 1 Chris Dickerson 1043.0000 4.9020 250
Premier Design : Blue Monster Hybrid 2019-12-15 C KIngsport 16 968.2667 1,390 2 Brandon Brown 1026.5000 2.2772 230
Country Hills Thriller Ignited by Nashville Disc Golf Store and Driven by Innova 2019-12-08 C Hendersonville 9 986.1667 1,110 2 Brandon Brown 1011.0000 1.8868 200
Morristown Winter Throwdown 2019-12-07 C Morristown 15 963.2667 1,740 2 Brandon Brown 1009.0000 2.6389 285
Belch'n Turkey XVII - Sponsored by Discraft 2019-11-30 B Chattanooga 20 976.9500 4,380 2 Chris Dickerson 1020.5000 6.2755 615
Josie's Journey Open 2019-11-09 C Lawrenceburg 14 951.9630 1,400 2 Benjamin Page 1005.0000 2.3763 221
Lee Naquin 2019-11-03 B Memphis 24 947.7361 6,450 3 Cole Neal 993.3333 4.4257 655
Rutherford Anniversary 2019 2019-11-02 C Murfreesboro 7 973.7143 810 2 PDGA #28807 1008.5000 1.9694 193
The Rumble on the River 2019-11-02 C Loudon 13 969.1923 1,436 2 Joey Lutz 1028.5000 2.5319 238
Halloween At Oggwood - Bell Witch Open sponsored by Dynamic Discs 2019-10-27 C Cedar Hill 8 965.6875 1,140 2 PDGA #48383 1044.0000 2.9412 250
Chains on the Links VI - Sponsored by Latitude 64 2019-10-19 B Soddy Daisy (near Chattanooga) 22 969.4884 4,790 2 PDGA #106864 1029.5000 6.4646 640
The Springfield Open Ignited by Nashville Disc Golf Store 2019-10-13 C Springfield 28 960.1071 2,570 2 PDGA #84061 1026.0000 3.7736 400
Morristown Fall Fling 2019-10-12 C Morristown 12 967.5417 1,150 2 Kris Orrick 1034.5000 1.9712 205
Burde Ridge Challenge X 2019-10-06 C Woodbury 3 925.6667 290 2 PDGA #61511 998.5000 0.9474 90
2019 Woodland Park Open - Driven by Innova 2019-10-05 C Columbia 8 956.4000 1,200 2 PDGA #26164 976.5000 2.0971 216
Copper Hills Classic 2019-10-05 C Memphis 6 973.7500 816 2 Josh Coghill 1010.0000 1.9208 194
Flex at Cedar Hill presented by Dynamic Discs 2019-10-05 C Nashville 19 940.7368 437 1 Michael Hoffman 1012.0000 2.2600 113
Volunteer Classic XIV 2019-09-29 B Knoxville 19 972.3333 4,719 3 Joey Lutz 1023.0000 3.0000 441
Cane Ridge Flex Start C Tier presented by Latitude 64 2019-09-21 C Antioch 6 917.1667 108 1 PDGA #106954 965.0000 0.8966 52
2019 Cane Ridge Open Sponsored by Dynamic Discs 2019-09-15 C Nashville 15 967.7857 1,740 2 Logan Bowers 1005.0000 2.7075 287
13th Annual Paris Open 2019-09-08 C Paris 6 909.0833 860 2 PDGA #59253 933.0000 2.0909 230
10th Annual Soybean Fest Disc Golf Tournament 2019-09-07 C Martin 2 930.7500 350 2 PDGA #49994 936.0000 1.5625 175
Cane Creek Challenge 9 2019-09-07 C Cookeville 13 947.4231 1,430 2 Kris Orrick 984.0000 2.3980 235
Premier Design : Return to Whitetail Ridge 2019-09-07 C Kingsport 14 971.5769 1,340 2 Chris Dickerson 1035.0000 2.2222 220
The Battle of Loretto 2019-09-07 C Loretto 15 951.5667 1,800 2 Cole Neal 1018.5000 3.1915 300
Secret City Classic 2 - Presented by Smoky Mountain Discs 2019-09-01 B Oak Ridge 16 965.1935 3,454 2 Chris Dickerson 1041.0000 3.4533 518
The Savannah Sling 2019-09-01 C Savannah 9 953.7778 1,050 2 Josh Coghill 981.5000 2.2632 215
Meet the Mountains at Winged Deer 2019-08-25 C Johnson City 13 978.1053 2,265 3 Chris Dickerson 1016.3333 1.7730 250
Skeeter Heater XV 2019-08-18 B Smyrna 24 962.4468 4,042 2 Joey Lutz 1038.0000 5.2604 505
The Knoxville Open Presented by MVP Disc Sports 2019-08-17 B Knoxville 20 962.6410 3,058 2 Jordan Davidson 997.5000 3.7632 429
2019 Music City Open Sponsored by Dynamic Discs 2019-08-04 A Nashville 74 978.0231 28,620 3 Chris Dickerson 1041.6667 6.1316 1,165
Music City Open Flex Start @ Ravenwood Ignited by Nashville Disc Golf Store 2019-08-01 C Nashville 8 941.7143 160 1 PDGA #78138 975.0000 1.3158 100
2nd annual Boomtown Throwdown. Grow disc golf 5k-10k event 2019-07-27 C Memphis 20 953.9744 3,086 2 Cole Neal 1012.5000 4.4516 414
Flex Start Saturday @ Tommy Schumpert -presented by DynamicDiscs 2019-07-27 C Knoxville 5 956.4000 150 1 PDGA #80258 993.0000 1.5254 90
Lakefront Open XXXIV 2019-07-21 C Kingsport 17 955.0800 3,225 3 Zach Melton 1022.6667 2.0134 300
Salute at the VA Ignited by Nashville Disc Golf Store- Sponsored by Discmania 2019-07-20 C Murfreesboro 15 956.1667 1,440 2 PDGA #32158 994.0000 2.0476 215
2nd Annual Duck River Open Driven by Innova 2019-07-13 B Chapel Hill 16 985.3750 1,892 1 Logan Bowers 1054.0000 11.0816 543
The Victor Smash 2019-07-13 C Knoxville 6 939.5000 305 1 Brandon Brown 1011.0000 2.6852 145
Bluff City Classic 2019 presented by Discraft 2019-07-07 B Memphis 20 962.2414 6,231 3 PDGA #60440 1031.0000 4.0699 582
Athens Regional Park Short Tees 2019-07-07 B Athens 8 980.3125 2,070 2 Chris Dickerson 1037.0000 4.4271 425
Harmon Memorial 2019-07-07 C Fall Branch 8 960.3333 1,275 3 PDGA #14994 993.3333 0.8255 175
Athens Regional Park Long Tees 2019-07-06 B Athens 9 980.3889 1,930 2 Chris Dickerson 1033.5000 3.6239 395
Roco Open - Presented by Smoky Mountain Discs 2019-06-30 B Harriman 17 959.4412 3,166 2 Chris Dickerson 1034.0000 5.1630 475
2019 Seven Oaks Summer Solstice Sponsored by Dynamic Discs 2019-06-30 C Nashville 17 937.5294 1,990 2 Logan Bowers 1008.0000 2.6316 300
The 2019 Old City Open Sponsored by Dynamic Discs 2019-06-22 B Knoxville 13 968.8077 2,130 2 Kris Orrick 1045.0000 4.6067 410
The Law. Co. Classic 2019-06-15 C Lawrenceburg 12 952.7083 2,300 2 PDGA #73879 1008.5000 4.6111 415
White House Huk Fest Ignited by Nashville Disc Golf Store and Discraft 2019-06-15 C White House 17 933.8235 1,882 2 D.J. Wix 979.5000 3.2000 320
Muletown FREE For All - Driven by Innova 2019-06-08 C Columbia 8 936.4375 0 2 PDGA #97880 991.0000 0.0000 0
The Tennessee Disc Golf State Championships 2019-06-02 A Morristown 51 971.8473 37,894 5 Chris Dickerson 1045.0000 5.6637 1,280
Cherokee Park Flex Start 2019-05-30 C Morristown 12 965.5833 215 1 Chris Dickerson 1048.0000 1.7021 80
2019 Mike Lane Classic Sponsored by Dynamic Discs 2019-05-26 C Nashville 21 935.7857 2,450 2 D.J. Wix 991.5000 2.9060 340
The 2019 Meltdown Challenge 2019-05-25 C Oak Ridge 7 961.7500 790 2 Jordan Davidson 997.5000 1.9072 185
The Barfield Open X: Driven by Innova 2019-05-19 B Murfreesboro 34 965.1029 6,450 2 Logan Bowers 1035.5000 6.7549 689
Battle at Burde Ridge X 2019-05-11 C Woodbury 5 939.5000 500 2 PDGA #91440 962.0000 1.5196 155
37th Annual Dogwood Classic 2019-05-05 B Memphis 16 965.9348 4,470 3 Matt Orum 1035.3333 3.2770 485
The 2019 Tommy Schumpert Open Driven by Innova 2019-05-04 B Knoxville 17 958.6176 2,850 2 Chris Dickerson 1015.5000 4.3878 430
Dallas Island Open - Grand Opening 2019-04-27 C Hixson 7 959.0000 1,450 2 Joey Lutz 1014.5000 3.3146 295
South of 64's Flex Start Friday presented Latitude 64 2019-04-19 C Madison 4 967.5000 90 1 Paul Ulibarri 1011.0000 1.0566 56
The Clash Ignited by Nashville Disc Golf Store and Driven by Innova 2019-04-13 C Cookeville 10 942.7500 900 2 PDGA #77771 1009.0000 2.0213 190
High on the Hogsnake IV - Benefiting Boy Scout Troop 118 2019-04-06 C Athens 10 956.1579 990 2 Joey Lutz 1032.0000 1.6667 180
The Iron Pig - Presented by Smoky Mountain Discs 2019-04-06 C Harriman 20 953.6000 2,332 2 Chris Dickerson 1038.0000 3.2947 313
Morristown Spring Fling Presented by Innova Champion Discs 2019-03-30 B Morristown 23 970.6522 5,077 3 Bartosz Kowalewski 1028.0000 3.4962 465
Long Hollow Open Ignited by Nashville Disc Golf Store and Driven by Innova 2019-03-17 C Gallatin 11 958.9545 1,050 2 Logan Bowers 991.0000 1.5487 175
Nurses Open 2019-03-16 C Cookeville 11 939.9091 600 2 Danny Parkins 1026.0000 1.3699 100
Mulekick Open II 2019-03-16 C Columbia 5 948.0000 700 2 Michael Hoffman 993.0000 1.7647 180
Prodigy Presents Nooga 2019 Benefitting Chambliss Center for Children 2019-03-09 C Chattanooga 10 962.6111 902 2 Will Schusterick 1010.5000 1.9271 185
Spike Hyzer's: Tim & Donna Wedding Anniversary Extravaganza V 2019-03-03 C Fall Branch 20 959.4359 1,920 2 Chris Dickerson 1038.0000 1.8243 270
Up the Creek Open 2019-03-02 C Cookeville 11 965.1364 1,210 2 Michael Hoffman 998.5000 2.1939 215
Rockland Dam Challenge Ignited by Nashville Disc Golf Store 2019-02-17 C Hendersonville 9 955.0000 890 2 Blake Waldron 1003.0000 1.7391 160
Frozen Chains (2019) 2019-02-09 C Memphis 14 941.7308 1,906 2 Josh Coghill 997.0000 3.1188 315
Knoxville Ice Bowl 2019-01-26 C Knoxville 24 959.0000 1,980 2 Chris Dickerson 1022.5000 2.9778 268
Shelby Shootout Ignited by Nashville Disc Golf Store 2019-01-20 C Nashville 13 957.2308 1,050 2 PDGA #84061 1003.5000 1.5487 175
The Frozen Gnome Presented by Heaven & Ale Brewing Co. 2019-01-05 C Chattanooga 16 970.5938 2,340 2 Joey Lutz 1032.0000 3.5000 350
The KDGA Presents: The End of the Year Flex Start C-Tier 2018-12-30 C Knoxville 13 951.0000 688 1 Chris Dickerson 1003.0000 4.8511 228
Country Hills Thriller Ignited by Nashville Disc Golf Store 2018-12-16 C Hendersonville 16 954.0938 1,450 2 D.J. Wix 1023.0000 2.2165 215
4th Annual Christmas Classic 2018-12-01 C Savannah 1 953.5000 120 2 PDGA #73879 953.5000 0.5556 60
Belch'n Turkey XVI - Sponsored by Discraft 2018-11-24 B Chattanooga 23 978.1818 5,350 2 Joey Lutz 1034.5000 7.0526 670
The Iron Pig - Presented by Smoky Mountain Discs 2018-11-11 C Harriman 10 966.9500 960 2 Chris Dickerson 1046.0000 1.8241 197
Woodland Park Open - Driven by Innova 2018-11-10 C Columbia 4 980.5000 700 2 Blake Waldron 1006.5000 2.7500 275
17th Annual Lee Naquin Memorial 2018-11-04 B Memphis 29 942.7619 7,290 3 Cameron Colglazier 1011.0000 4.1438 605
Lo-Town Throw Down- Presented by Dynamic Discs 2018-11-03 C Loretto 9 972.7778 1,440 2 Jared Neal 1006.0000 2.6804 260
Chains on the Links V - Sponsored by Latitude 64 2018-10-27 B Soddy Daisy 15 966.8333 3,270 2 Joey Lutz 1030.0000 4.8469 475
The Bell Witch Open Presented by Dynamic Discs 2018-10-21 C Cedar Hill 17 952.1176 1,972 2 Michael Hoffman 1012.0000 3.1915 300
Volunteer Classic XIII 2018-10-14 B Knoxville 33 956.6970 8,133 3 Joey Lutz 1023.3333 4.8243 714
Cane Creek Challenge 8 2018-09-22 B Cookeville 12 965.9583 2,536 2 Michael Hoffman 998.5000 4.6907 455
Rutherford Anniversary 2018-09-16 B Smyrna 20 958.9487 3,012 2 Sam Lee 1010.0000 3.9608 404
Copper Hills Classic 2018 2018-09-15 C Millington 10 944.8000 1,160 2 PDGA #55440 1000.5000 2.1441 238
Morristown Open Powered By Prodigy Discs 2018-09-15 B Morristown 16 960.9063 2,464 2 Chris Dickerson 1018.0000 3.6275 370
12th Annual Paris Open 2018-09-09 C Paris 4 934.0000 650 2 PDGA #19573 969.0000 1.9159 205
The Secret City Classic 2018-09-02 B Oak Ridge 13 968.7600 2,074 2 Chris Dickerson 1045.5000 2.6835 373
White House Huk Fest: Driven by Innova and Nashville Disc Golf Store 2018-08-26 C White House 13 935.4231 1,390 2 D.J. Wix 999.5000 2.4211 230
Meet the Mountains @ Winged Deer 2018-08-26 B Johnson City 11 968.5227 2,328 4 Noah Osborne 986.0000 0.0000 0
Josie's Journey Open - Powered by Prodigy 2018-08-25 C Lawrenceburg 15 940.8667 1,914 2 Benjamin Page 997.5000 3.4615 315
Knoxville Open 2018-08-18 B Knoxville 21 971.2381 2,930 2 Chris Dickerson 1028.0000 3.5514 380
The Music City Open Sponsored by Dynamic Discs 2018-08-05 A Nashville 60 970.9181 22,629 3 Chris Dickerson 1038.3333 6.7628 1,055
Combat at the Oaks 2018-08-02 C Nashville 3 965.3333 114 1 David Harless 988.0000 1.0000 57
Combat at the Oaks 2018-08-02 C Nashville 3 965.3333 114 1 PDGA #60993 988.0000 1.0000 57
Music City Open Flex Start @ Ravenwood 2018-08-02 C Nashville 6 968.3333 135 1 PDGA #60440 1026.0000 1.1818 65
Duck River Open 2018-07-28 C Chapel Hill 11 954.3636 1,070 2 Joey Lutz 1015.5000 3.0741 332
Athens Regional Park Short Tees 2018-07-08 B Athens 6 970.0833 1,470 2 PDGA #75040 996.0000 3.4314 350
Bluff City Classic 2018 2018-07-08 B Memphis 9 960.7778 2,937 3 PDGA #60440 1029.0000 2.8112 402
Athens Regional Park Long Tees 2018-07-07 B Athens 10 967.7000 2,064 2 Joey Lutz 1013.0000 3.2174 370
Seven Oaks Summer Solstice presented by Dynamic Discs 2018-06-30 C Nashville 13 957.9583 1,340 2 Logan Bowers 1000.5000 1.9298 220
2018 Harmon Hills Memorial sponsored by Dynamic Discs 2018-06-24 C Fall Branch 9 956.1111 530 2 Noah Osborne 991.0000 0.0000 0
Salute at the VA Nashville Disc Golf Store Tour Series Finale 2018-06-23 B Murfreesboro 10 968.7500 1,580 2 Blake Waldron 1008.0000 3.3163 325
Old City Open 2018-06-23 B Knoxville 23 944.6522 3,330 2 Chris Dickerson 1027.0000 4.1579 395
The Boomtown Throwdown (GDG 5k/10k Event) 2018-06-16 C Memphis 39 945.3421 7,252 2 PDGA #93844 1015.5000 9.5652 880
The Battle at the Fort - Sponsored by Dynamic Discs 2018-06-10 C Kingston 10 950.4000 1,320 2 PDGA #75040 1013.0000 3.3529 285
The Iron Gnome 2018 2018-06-09 C East Ridge 12 949.5417 914 2 PDGA #34977 985.5000 1.8649 207
Muletown FREE For All 2018-06-09 C Columbia 5 941.7000 0 2 Trevor Dehmlow 977.0000 0.0000 0
Tennessee State Disc Golf Championships - Pros 2018-06-03 A Morristown 22 962.0227 19,260 4 Chris Dickerson 1021.5000 5.9447 1,290
The Saint Joe Classic - presented by Lawson's- Driven by Innova 2018-06-02 C Saint Joseph 9 963.4444 1,538 2 Benjamin Page 1018.5000 3.7500 315
Cedar Hill Classic presented by Dynamic Discs 2018-05-26 C Nashville 14 948.7600 1,440 2 PDGA #42875 1026.0000 1.8868 200
Cookeville Clash Nashville Disc Golf Store Tour Series 2018-05-20 C Cookeville 23 953.6087 1,960 2 Will Schusterick 1015.0000 2.9121 265
Tommy Schumpert Open 2018-05-19 B Knoxville 8 966.3125 1,340 2 Zach Melton 1033.0000 2.8947 275
2018 Barfield Open 2018-05-06 B Murfreesboro 26 960.8846 4,868 2 Logan Bowers 1016.5000 5.8247 565
33rd Lakefront Open 2018-05-06 C Kingsport 9 967.2400 1,365 3 Chris Dickerson 1048.3333 1.5972 230
Morristown Rotary Spring Fling Sponsored by Dynamic Discs 2018-04-28 B Morristown 15 937.5667 2,340 2 Sam Lee 985.5000 3.4234 380
Premier Design : 411 Hybrid at Warriors Bend TPC (Back 9) 2018-04-14 C Kingsport 13 948.4231 1,160 2 Brandon Brown 998.0000 1.9196 215
High on the Hogsnake III - Benefiting Boy Scout Troop 118 2018-04-07 C Athens 9 952.4118 740 2 Joey Lutz 1016.5000 1.5126 180
Nooga 2018 Benefiting VORP presented by Dynamic Discs 2018-03-24 C Chattanooga 6 957.5000 470 2 Joey Lutz 996.5000 1.4500 145
Crosstown Open - Nashville Disc Golf Store Tour Series 2018-03-18 C Hendersonville-Gallatin 11 946.2857 1,120 2 D.J. Wix 1010.0000 2.3958 230
Huck of the Irish 2 2018-03-17 C Cookeville 16 965.9688 1,760 2 Logan Bowers 1034.0000 2.8804 265
Mulekick Open 2018-03-17 C Columbia 3 946.3333 300 2 PDGA #106864 953.0000 0.8545 94
Spike Hyzer's: Tim & Donna's Wedding Anniversary Extravaganza Driven By Innova 2018-03-04 B Kingsport 15 963.5517 1,886 2 Chris Dickerson 999.5000 2.1739 350
MDGA Winter Throwdown Presented by Innova Champion Discs 2018-02-24 C Morristown 12 942.8750 800 2 PDGA #80258 999.5000 1.7188 165
Rockland Dam Challenge Nashville Disc Golf Store Tour Series 2018-02-17 C Hendersonville 13 951.0000 1,560 2 PDGA #98943 1053.0000 3.0952 260
Frozen Chains (2018) 2018-02-03 C Memphis 17 940.2353 1,836 2 PDGA #79280 1005.0000 2.7835 270
Knoxville Ice Bowl 2018-01-27 C Knoxville 20 955.1250 988 2 Chris Dickerson 1049.0000 1.6867 140
Shelby Park Shootout - Nashville Disc Golf Store Tour Series 2018-01-20 C Nashville 23 957.1087 2,638 2 Joey Lutz 1034.5000 4.1919 415
The CedarEater 2017-12-10 C Ooltewah 13 939.3077 890 2 PDGA #26419 985.0000 1.4423 150
Country Hills Thriller 2017-12-10 C Hendersonville 16 936.2500 1,610 2 Sam Lee 1015.5000 2.3529 240
3rd Annual Christmas Classic 2017-12-02 C Savannah 12 945.8696 1,390 2 Logan Bowers 1011.0000 2.7473 250
Belch'n Turkey XV 2017-11-25 B Chattanooga 21 975.2381 4,920 2 Chris Dickerson 1053.5000 7.4444 670
Premier Design : Blue Monster Hybrid @ Cattails TPC 2017-11-18 C Kingsport 18 968.4722 1,820 2 Zach Melton 1031.5000 2.6042 250
Knoxville Open 2017-11-11 B Knoxville 22 951.8636 2,840 2 Eric Oakley 1021.0000 4.5306 444
Chains on the Links IV sponsored by Latitude 64 2017-10-28 B Soddy Daisy 10 954.8000 2,818 2 Joey Lutz 1018.5000 4.6296 500
Copper Hills Classic 2017 2017-10-28 C Memphis 5 937.1000 530 2 PDGA #59298 954.0000 1.3095 165
Bell Witch Open 2017-10-22 C Cedar Hill 13 909.3077 1,250 2 PDGA #47865 984.5000 1.8182 200
The Middle Tennessee Championships 2017 2017-10-22 B Smyrna & Murfreesboro 10 961.7692 3,356 4 PDGA #32158 1007.7500 1.7725 335
Cane Creek Challenge 7 2017-09-23 C Cookeville 14 960.3929 1,430 2 PDGA #42875 1027.5000 2.8333 255
Grand Opening of Athens Tennessee 18 holes! 2017-09-17 C Athens 4 950.8750 540 2 Joey Lutz 999.5000 1.4912 170
11th Annual Paris Open 2017-09-10 C Paris 2 957.0000 320 2 Zackeriath Johnson 977.0000 1.5238 160
Weapons of Grass Destruction Pickwick Stop 2017-09-09 C Counce 8 929.6250 720 2 Hunter Brasel 973.5000 1.7895 170
8th Annual Soybean Festival Disc Golf Tournament 2017-09-09 C Martin 4 917.0000 630 2 Zackeriath Johnson 950.0000 1.7727 195
Music City Open 2017-09-03 A Nashville 32 951.8602 13,074 3 Chris Dickerson 1043.3333 6.5789 1,000
Volunteer Classic XII 2017-08-27 B Knoxville 21 961.9206 11,965 4 Nicholas Masters 1011.6667 4.6610 825
The Skeeter Heater 2017 2017-08-20 B Smyrna 25 956.5200 4,488 2 Logan Bowers 1019.0000 5.8152 535
Panther Creek Open Presented by Innova Champion Discs 2017-08-05 B Morristown 19 953.6571 3,150 2 PDGA #16304 989.0000 4.0826 445
Premier Design DG : Chimney Top Hybrid presented by Dynamic Discs 2017-07-29 B Chuckey 9 957.3889 1,430 2 PDGA #42875 1023.5000 2.8922 295
Old City Open 2017-07-22 B Knoxville 17 951.0313 2,660 2 Chris Dickerson 1036.5000 4.4944 400
Chasin the Chains at Shelby Park 2017-07-16 C Nashville 8 945.5000 220 1 PDGA #42736 992.0000 1.4286 70
Chasin the Chains at Shelby Park 2017-07-16 C Nashville 8 945.5000 220 1 David Harless 992.0000 1.4286 70
Chasin the Chains at Seven Oaks 2017-07-14 C Nashville 7 936.8571 140 1 PDGA #75909 997.0000 1.5217 70
Bluff City Classic 2017 2017-07-09 B Memphis 15 963.7556 3,810 3 PDGA #42875 1000.0000 2.8188 420
Salute at the VA presented by Nashville Disc Golf Store 2017-07-01 C Murfreesboro 10 949.9500 850 2 Logan Bowers 1019.0000 1.8421 175
Seven Oaks Summer Solstice 2017-06-24 C Nashville 11 961.3158 1,210 2 PDGA #42875 1006.5000 1.9469 220
Tommy Schumpert Open 2017-06-24 B Knoxville 12 939.4167 2,170 2 PDGA #65511 990.0000 3.8235 390
Tennessee State Disc Golf Championships 2017-06-04 A Morristown 50 971.0758 31,934 5 Chris Dickerson 1026.0000 5.1786 1,160
Cookeville Clash presented by Nashville Disc Golf Store 2017-05-28 C Cookeville 8 940.5625 770 2 Danny Parkins 980.0000 1.6162 160
32nd Lakefront Open 2017-05-21 C Kingsport 16 953.8936 3,210 3 PDGA #10512 1014.3333 2.0382 320
Bells Angels Flying with the Wright Brothers 2017-05-13 C Lawerenceburg 4 963.0000 480 2 Jared Neal 1021.5000 1.7045 150
Cedar Hill Classic 2017-05-13 C Nashville 9 929.8889 1,100 2 Logan Bowers 1003.5000 2.0408 200
Morristown Spring Fling 2017-05-13 B Morristown 19 960.1053 4,264 3 Calvin Heimburg 1042.0000 3.7611 425
The Barfield Open 2017 2017-04-30 B Murfreesboro 23 955.8864 3,890 2 Logan Bowers 1048.0000 5.3030 525
411 Hybrid at Whitetail Ridge 2017-04-01 B Kingsport 19 956.9730 2,602 2 PDGA #77771 1005.0000 3.3796 365
High on the Hogsnake II - Benefiting Boy Scout Troop 118 2017-04-01 C Athens 11 958.2727